sensor_id;sensor_type;location;lat;lon;timestamp;temperature;humidity
22167;DHT22;11249;52.468;13.776;2023-07-13T00:01:54;17.70;99.90
22167;DHT22;11249;52.468;13.776;2023-07-13T00:04:23;17.70;99.90
22167;DHT22;11249;52.468;13.776;2023-07-13T00:06:51;17.60;99.90
22167;DHT22;11249;52.468;13.776;2023-07-13T00:09:19;17.60;99.90
22167;DHT22;11249;52.468;13.776;2023-07-13T00:11:51;17.50;99.90
22167;DHT22;11249;52.468;13.776;2023-07-13T00:14:19;17.50;99.90
22167;DHT22;11249;52.468;13.776;2023-07-13T00:16:46;17.50;99.90
22167;DHT22;11249;52.468;13.776;2023-07-13T00:19:13;17.50;99.90
22167;DHT22;11249;52.468;13.776;2023-07-13T00:21:41;17.40;99.90
22167;DHT22;11249;52.468;13.776;2023-07-13T00:24:11;17.40;99.90
22167;DHT22;11249;52.468;13.776;2023-07-13T00:26:42;17.40;99.90
22167;DHT22;11249;52.468;13.776;2023-07-13T00:29:13;17.40;99.90
22167;DHT22;11249;52.468;13.776;2023-07-13T00:31:40;17.30;99.90
22167;DHT22;11249;52.468;13.776;2023-07-13T00:34:07;17.30;99.90
22167;DHT22;11249;52.468;13.776;2023-07-13T00:36:33;17.30;99.90
22167;DHT22;11249;52.468;13.776;2023-07-13T00:39:01;17.30;99.90
22167;DHT22;11249;52.468;13.776;2023-07-13T00:41:27;17.30;99.90
22167;DHT22;11249;52.468;13.776;2023-07-13T00:43:54;17.20;99.90
22167;DHT22;11249;52.468;13.776;2023-07-13T00:46:27;17.30;99.90
22167;DHT22;11249;52.468;13.776;2023-07-13T00:48:56;17.20;99.90
22167;DHT22;11249;52.468;13.776;2023-07-13T00:51:28;17.20;99.90
22167;DHT22;11249;52.468;13.776;2023-07-13T00:53:58;17.20;99.90
22167;DHT22;11249;52.468;13.776;2023-07-13T00:56:26;17.20;99.90
22167;DHT22;11249;52.468;13.776;2023-07-13T00:58:55;17.10;99.90
22167;DHT22;11249;52.468;13.776;2023-07-13T01:01:23;17.10;99.90
22167;DHT22;11249;52.468;13.776;2023-07-13T01:03:50;17.10;99.90
22167;DHT22;11249;52.468;13.776;2023-07-13T01:06:17;17.00;99.90
22167;DHT22;11249;52.468;13.776;2023-07-13T01:08:44;17.00;99.90
22167;DHT22;11249;52.468;13.776;2023-07-13T01:11:11;16.90;99.90
22167;DHT22;11249;52.468;13.776;2023-07-13T01:13:38;16.90;99.90
22167;DHT22;11249;52.468;13.776;2023-07-13T01:16:13;16.90;99.90
22167;DHT22;11249;52.468;13.776;2023-07-13T01:18:41;16.90;99.90
22167;DHT22;11249;52.468;13.776;2023-07-13T01:21:08;16.90;99.90
22167;DHT22;11249;52.468;13.776;2023-07-13T01:23:34;16.90;99.90
22167;DHT22;11249;52.468;13.776;2023-07-13T01:26:02;16.90;99.90
22167;DHT22;11249;52.468;13.776;2023-07-13T01:28:29;16.90;99.90
22167;DHT22;11249;52.468;13.776;2023-07-13T01:30:58;16.90;99.90
22167;DHT22;11249;52.468;13.776;2023-07-13T01:33:25;16.90;99.90
22167;DHT22;11249;52.468;13.776;2023-07-13T01:35:52;16.90;99.90
22167;DHT22;11249;52.468;13.776;2023-07-13T01:38:21;16.90;99.90
22167;DHT22;11249;52.468;13.776;2023-07-13T01:40:50;16.90;99.90
22167;DHT22;11249;52.468;13.776;2023-07-13T01:43:17;16.90;99.90
22167;DHT22;11249;52.468;13.776;2023-07-13T01:45:44;16.90;99.90
22167;DHT22;11249;52.468;13.776;2023-07-13T01:48:12;16.90;99.90
22167;DHT22;11249;52.468;13.776;2023-07-13T01:50:39;16.90;99.90
22167;DHT22;11249;52.468;13.776;2023-07-13T01:53:06;16.90;99.90
22167;DHT22;11249;52.468;13.776;2023-07-13T01:55:34;16.90;99.90
22167;DHT22;11249;52.468;13.776;2023-07-13T01:58:01;16.90;99.90
22167;DHT22;11249;52.468;13.776;2023-07-13T02:00:28;16.90;99.90
22167;DHT22;11249;52.468;13.776;2023-07-13T02:02:54;16.90;99.90
22167;DHT22;11249;52.468;13.776;2023-07-13T02:05:21;16.80;99.90
22167;DHT22;11249;52.468;13.776;2023-07-13T02:07:48;16.80;99.90
22167;DHT22;11249;52.468;13.776;2023-07-13T02:10:15;16.80;99.90
22167;DHT22;11249;52.468;13.776;2023-07-13T02:12:42;16.70;99.90
22167;DHT22;11249;52.468;13.776;2023-07-13T02:15:10;16.60;99.90
22167;DHT22;11249;52.468;13.776;2023-07-13T02:17:37;16.60;99.90
22167;DHT22;11249;52.468;13.776;2023-07-13T02:20:04;16.60;99.90
22167;DHT22;11249;52.468;13.776;2023-07-13T02:22:31;16.50;99.90
22167;DHT22;11249;52.468;13.776;2023-07-13T02:24:58;16.50;99.90
22167;DHT22;11249;52.468;13.776;2023-07-13T02:27:25;16.50;99.90
22167;DHT22;11249;52.468;13.776;2023-07-13T02:29:52;16.40;99.90
22167;DHT22;11249;52.468;13.776;2023-07-13T02:32:20;16.40;99.90
22167;DHT22;11249;52.468;13.776;2023-07-13T02:34:46;16.30;99.90
22167;DHT22;11249;52.468;13.776;2023-07-13T02:37:13;16.30;99.90
22167;DHT22;11249;52.468;13.776;2023-07-13T02:39:40;16.20;99.90
22167;DHT22;11249;52.468;13.776;2023-07-13T02:42:09;16.10;99.90
22167;DHT22;11249;52.468;13.776;2023-07-13T02:44:35;16.10;99.90
22167;DHT22;11249;52.468;13.776;2023-07-13T02:47:02;16.10;99.90
22167;DHT22;11249;52.468;13.776;2023-07-13T02:49:29;16.00;99.90
22167;DHT22;11249;52.468;13.776;2023-07-13T02:51:56;16.00;99.90
22167;DHT22;11249;52.468;13.776;2023-07-13T02:54:22;15.90;99.90
22167;DHT22;11249;52.468;13.776;2023-07-13T02:56:49;15.90;99.90
22167;DHT22;11249;52.468;13.776;2023-07-13T02:59:16;15.90;99.90
22167;DHT22;11249;52.468;13.776;2023-07-13T03:01:42;15.80;99.90
22167;DHT22;11249;52.468;13.776;2023-07-13T03:04:09;15.80;99.90
22167;DHT22;11249;52.468;13.776;2023-07-13T03:06:36;15.80;99.90
22167;DHT22;11249;52.468;13.776;2023-07-13T03:09:03;15.70;99.90
22167;DHT22;11249;52.468;13.776;2023-07-13T03:11:30;15.70;99.90
22167;DHT22;11249;52.468;13.776;2023-07-13T03:13:57;15.70;99.90
22167;DHT22;11249;52.468;13.776;2023-07-13T03:16:24;15.70;99.90
22167;DHT22;11249;52.468;13.776;2023-07-13T03:18:51;15.70;99.90
22167;DHT22;11249;52.468;13.776;2023-07-13T03:21:18;15.70;99.90
22167;DHT22;11249;52.468;13.776;2023-07-13T03:23:45;15.70;99.90
22167;DHT22;11249;52.468;13.776;2023-07-13T03:26:15;15.70;99.90
22167;DHT22;11249;52.468;13.776;2023-07-13T03:28:43;15.70;99.90
22167;DHT22;11249;52.468;13.776;2023-07-13T03:31:16;15.60;99.90
22167;DHT22;11249;52.468;13.776;2023-07-13T03:33:44;15.60;99.90
22167;DHT22;11249;52.468;13.776;2023-07-13T03:36:14;15.70;99.90
22167;DHT22;11249;52.468;13.776;2023-07-13T03:38:42;15.70;99.90
22167;DHT22;11249;52.468;13.776;2023-07-13T03:41:09;15.70;99.90
22167;DHT22;11249;52.468;13.776;2023-07-13T03:43:36;15.70;99.90
22167;DHT22;11249;52.468;13.776;2023-07-13T03:46:02;15.80;99.90
22167;DHT22;11249;52.468;13.776;2023-07-13T03:48:29;15.80;99.90
22167;DHT22;11249;52.468;13.776;2023-07-13T03:50:56;15.80;99.90
22167;DHT22;11249;52.468;13.776;2023-07-13T03:53:22;15.80;99.90
22167;DHT22;11249;52.468;13.776;2023-07-13T03:55:49;15.80;99.90
22167;DHT22;11249;52.468;13.776;2023-07-13T03:58:43;15.90;99.90
22167;DHT22;11249;52.468;13.776;2023-07-13T04:01:12;15.90;99.90
22167;DHT22;11249;52.468;13.776;2023-07-13T04:03:39;15.90;99.90
22167;DHT22;11249;52.468;13.776;2023-07-13T04:06:08;15.90;99.90
22167;DHT22;11249;52.468;13.776;2023-07-13T04:08:39;16.00;99.90
22167;DHT22;11249;52.468;13.776;2023-07-13T04:11:06;16.00;99.90
22167;DHT22;11249;52.468;13.776;2023-07-13T04:13:33;16.00;99.90
22167;DHT22;11249;52.468;13.776;2023-07-13T04:16:00;16.00;99.90
22167;DHT22;11249;52.468;13.776;2023-07-13T04:18:26;16.00;99.90
22167;DHT22;11249;52.468;13.776;2023-07-13T04:20:53;16.10;99.90
22167;DHT22;11249;52.468;13.776;2023-07-13T04:23:20;16.10;99.90
22167;DHT22;11249;52.468;13.776;2023-07-13T04:25:48;16.10;99.90
22167;DHT22;11249;52.468;13.776;2023-07-13T04:28:23;16.20;99.90
22167;DHT22;11249;52.468;13.776;2023-07-13T04:30:51;16.20;99.90
22167;DHT22;11249;52.468;13.776;2023-07-13T04:33:18;16.30;99.90
22167;DHT22;11249;52.468;13.776;2023-07-13T04:35:50;16.30;99.90
22167;DHT22;11249;52.468;13.776;2023-07-13T04:38:21;16.40;99.90
22167;DHT22;11249;52.468;13.776;2023-07-13T04:40:48;16.50;99.90
22167;DHT22;11249;52.468;13.776;2023-07-13T04:43:14;16.50;99.90
22167;DHT22;11249;52.468;13.776;2023-07-13T04:45:41;16.60;99.90
22167;DHT22;11249;52.468;13.776;2023-07-13T04:48:08;16.60;99.90
22167;DHT22;11249;52.468;13.776;2023-07-13T04:50:38;16.70;99.90
22167;DHT22;11249;52.468;13.776;2023-07-13T04:53:05;16.70;99.90
22167;DHT22;11249;52.468;13.776;2023-07-13T04:55:32;16.70;99.90
22167;DHT22;11249;52.468;13.776;2023-07-13T04:57:59;16.80;99.90
22167;DHT22;11249;52.468;13.776;2023-07-13T05:00:26;16.90;99.90
22167;DHT22;11249;52.468;13.776;2023-07-13T05:02:57;17.00;99.90
22167;DHT22;11249;52.468;13.776;2023-07-13T05:05:26;17.20;99.90
22167;DHT22;11249;52.468;13.776;2023-07-13T05:07:53;17.20;99.90
22167;DHT22;11249;52.468;13.776;2023-07-13T05:10:20;17.30;99.90
22167;DHT22;11249;52.468;13.776;2023-07-13T05:12:47;17.50;99.90
22167;DHT22;11249;52.468;13.776;2023-07-13T05:15:14;17.50;99.90
22167;DHT22;11249;52.468;13.776;2023-07-13T05:17:41;17.60;99.90
22167;DHT22;11249;52.468;13.776;2023-07-13T05:20:09;17.70;99.90
22167;DHT22;11249;52.468;13.776;2023-07-13T05:22:36;17.80;99.90
22167;DHT22;11249;52.468;13.776;2023-07-13T05:25:05;17.80;99.90
22167;DHT22;11249;52.468;13.776;2023-07-13T05:27:33;17.90;99.90
22167;DHT22;11249;52.468;13.776;2023-07-13T05:30:00;17.90;99.90
22167;DHT22;11249;52.468;13.776;2023-07-13T05:32:27;17.90;99.90
22167;DHT22;11249;52.468;13.776;2023-07-13T05:34:54;18.00;99.90
22167;DHT22;11249;52.468;13.776;2023-07-13T05:37:20;18.00;99.90
22167;DHT22;11249;52.468;13.776;2023-07-13T05:39:47;18.10;99.90
22167;DHT22;11249;52.468;13.776;2023-07-13T05:42:14;18.10;99.90
22167;DHT22;11249;52.468;13.776;2023-07-13T05:44:41;18.10;99.90
22167;DHT22;11249;52.468;13.776;2023-07-13T05:47:07;18.20;99.90
22167;DHT22;11249;52.468;13.776;2023-07-13T05:49:34;18.20;99.90
22167;DHT22;11249;52.468;13.776;2023-07-13T05:52:01;18.30;99.90
22167;DHT22;11249;52.468;13.776;2023-07-13T05:54:28;18.40;99.90
22167;DHT22;11249;52.468;13.776;2023-07-13T05:56:55;18.40;99.90
22167;DHT22;11249;52.468;13.776;2023-07-13T05:59:21;18.50;99.90
22167;DHT22;11249;52.468;13.776;2023-07-13T06:01:49;18.60;99.90
22167;DHT22;11249;52.468;13.776;2023-07-13T06:04:16;18.70;99.90
22167;DHT22;11249;52.468;13.776;2023-07-13T06:06:43;18.80;99.90
22167;DHT22;11249;52.468;13.776;2023-07-13T06:09:09;18.90;99.90
22167;DHT22;11249;52.468;13.776;2023-07-13T06:11:36;18.90;99.90
22167;DHT22;11249;52.468;13.776;2023-07-13T06:14:03;19.00;99.90
22167;DHT22;11249;52.468;13.776;2023-07-13T06:16:30;19.00;99.90
22167;DHT22;11249;52.468;13.776;2023-07-13T06:18:57;19.10;99.90
22167;DHT22;11249;52.468;13.776;2023-07-13T06:21:24;19.20;99.90
22167;DHT22;11249;52.468;13.776;2023-07-13T06:23:54;19.30;99.90
22167;DHT22;11249;52.468;13.776;2023-07-13T06:26:21;19.40;99.90
22167;DHT22;11249;52.468;13.776;2023-07-13T06:28:48;19.50;99.90
22167;DHT22;11249;52.468;13.776;2023-07-13T06:31:15;19.50;99.90
22167;DHT22;11249;52.468;13.776;2023-07-13T06:33:44;19.60;99.90
22167;DHT22;11249;52.468;13.776;2023-07-13T06:36:11;19.60;99.90
22167;DHT22;11249;52.468;13.776;2023-07-13T06:38:38;19.70;99.90
22167;DHT22;11249;52.468;13.776;2023-07-13T06:41:06;19.80;99.90
22167;DHT22;11249;52.468;13.776;2023-07-13T06:43:33;19.80;99.90
22167;DHT22;11249;52.468;13.776;2023-07-13T06:46:00;19.90;99.90
22167;DHT22;11249;52.468;13.776;2023-07-13T06:48:27;20.00;99.90
22167;DHT22;11249;52.468;13.776;2023-07-13T06:50:54;20.00;99.90
22167;DHT22;11249;52.468;13.776;2023-07-13T06:53:22;20.10;99.90
22167;DHT22;11249;52.468;13.776;2023-07-13T06:55:49;20.10;99.90
22167;DHT22;11249;52.468;13.776;2023-07-13T06:58:17;20.20;99.90
22167;DHT22;11249;52.468;13.776;2023-07-13T07:00:44;20.30;99.90
22167;DHT22;11249;52.468;13.776;2023-07-13T07:03:11;20.40;99.90
22167;DHT22;11249;52.468;13.776;2023-07-13T07:05:38;20.40;99.90
22167;DHT22;11249;52.468;13.776;2023-07-13T07:08:04;20.50;99.90
22167;DHT22;11249;52.468;13.776;2023-07-13T07:10:32;20.50;99.90
22167;DHT22;11249;52.468;13.776;2023-07-13T07:12:58;20.60;99.90
22167;DHT22;11249;52.468;13.776;2023-07-13T07:15:25;20.60;99.90
22167;DHT22;11249;52.468;13.776;2023-07-13T07:17:52;20.80;99.90
22167;DHT22;11249;52.468;13.776;2023-07-13T07:20:19;20.80;99.90
22167;DHT22;11249;52.468;13.776;2023-07-13T07:22:47;20.90;99.90
22167;DHT22;11249;52.468;13.776;2023-07-13T07:25:14;20.90;99.90
22167;DHT22;11249;52.468;13.776;2023-07-13T07:27:41;21.10;99.90
22167;DHT22;11249;52.468;13.776;2023-07-13T07:30:11;21.10;99.90
22167;DHT22;11249;52.468;13.776;2023-07-13T07:32:41;21.20;99.90
22167;DHT22;11249;52.468;13.776;2023-07-13T07:35:23;21.20;99.90
22167;DHT22;11249;52.468;13.776;2023-07-13T07:37:50;21.30;99.90
22167;DHT22;11249;52.468;13.776;2023-07-13T07:40:17;21.40;99.90
22167;DHT22;11249;52.468;13.776;2023-07-13T07:42:47;21.50;99.90
22167;DHT22;11249;52.468;13.776;2023-07-13T07:45:14;21.50;99.90
22167;DHT22;11249;52.468;13.776;2023-07-13T07:47:41;21.60;99.90
22167;DHT22;11249;52.468;13.776;2023-07-13T07:50:09;21.70;99.90
22167;DHT22;11249;52.468;13.776;2023-07-13T07:52:36;21.70;99.90
22167;DHT22;11249;52.468;13.776;2023-07-13T07:55:05;21.70;99.90
22167;DHT22;11249;52.468;13.776;2023-07-13T07:57:35;21.70;99.90
22167;DHT22;11249;52.468;13.776;2023-07-13T08:00:06;21.70;99.90
22167;DHT22;11249;52.468;13.776;2023-07-13T08:02:36;21.70;99.90
22167;DHT22;11249;52.468;13.776;2023-07-13T08:05:05;21.80;99.90
22167;DHT22;11249;52.468;13.776;2023-07-13T08:07:37;21.90;99.90
22167;DHT22;11249;52.468;13.776;2023-07-13T08:10:08;21.90;99.90
22167;DHT22;11249;52.468;13.776;2023-07-13T08:12:36;22.00;99.90
22167;DHT22;11249;52.468;13.776;2023-07-13T08:15:09;22.00;99.90
22167;DHT22;11249;52.468;13.776;2023-07-13T08:17:36;22.10;99.90
22167;DHT22;11249;52.468;13.776;2023-07-13T08:20:04;22.20;99.90
22167;DHT22;11249;52.468;13.776;2023-07-13T08:22:30;22.30;99.90
22167;DHT22;11249;52.468;13.776;2023-07-13T08:24:59;22.50;99.90
22167;DHT22;11249;52.468;13.776;2023-07-13T08:27:27;22.60;99.90
22167;DHT22;11249;52.468;13.776;2023-07-13T08:29:54;22.70;99.90
22167;DHT22;11249;52.468;13.776;2023-07-13T08:32:22;22.70;99.90
22167;DHT22;11249;52.468;13.776;2023-07-13T08:34:49;22.90;99.90
22167;DHT22;11249;52.468;13.776;2023-07-13T08:37:17;23.00;99.90
22167;DHT22;11249;52.468;13.776;2023-07-13T08:39:43;23.20;99.90
22167;DHT22;11249;52.468;13.776;2023-07-13T08:42:15;23.30;99.90
22167;DHT22;11249;52.468;13.776;2023-07-13T08:45:03;23.40;99.90
22167;DHT22;11249;52.468;13.776;2023-07-13T08:47:33;23.50;99.90
22167;DHT22;11249;52.468;13.776;2023-07-13T08:50:03;23.50;99.90
22167;DHT22;11249;52.468;13.776;2023-07-13T08:52:34;23.50;99.90
22167;DHT22;11249;52.468;13.776;2023-07-13T08:55:21;23.50;99.90
22167;DHT22;11249;52.468;13.776;2023-07-13T08:57:54;23.50;99.90
22167;DHT22;11249;52.468;13.776;2023-07-13T09:00:25;23.30;99.90
22167;DHT22;11249;52.468;13.776;2023-07-13T09:02:59;23.30;99.90
22167;DHT22;11249;52.468;13.776;2023-07-13T09:05:40;23.30;99.90
22167;DHT22;11249;52.468;13.776;2023-07-13T09:08:39;23.40;99.90
22167;DHT22;11249;52.468;13.776;2023-07-13T09:14:17;23.80;99.90
22167;DHT22;11249;52.468;13.776;2023-07-13T09:16:50;23.90;99.90
22167;DHT22;11249;52.468;13.776;2023-07-13T09:19:30;24.00;99.90
22167;DHT22;11249;52.468;13.776;2023-07-13T09:21:59;24.20;99.90
22167;DHT22;11249;52.468;13.776;2023-07-13T09:24:41;24.20;99.90
22167;DHT22;11249;52.468;13.776;2023-07-13T09:27:23;24.20;99.90
22167;DHT22;11249;52.468;13.776;2023-07-13T09:30:01;24.10;99.90
22167;DHT22;11249;52.468;13.776;2023-07-13T09:32:29;24.10;99.90
22167;DHT22;11249;52.468;13.776;2023-07-13T09:34:56;24.10;99.90
22167;DHT22;11249;52.468;13.776;2023-07-13T09:37:31;24.20;99.90
22167;DHT22;11249;52.468;13.776;2023-07-13T09:39:59;24.10;99.90
22167;DHT22;11249;52.468;13.776;2023-07-13T09:42:32;23.90;99.90
22167;DHT22;11249;52.468;13.776;2023-07-13T09:45:01;23.90;99.90
22167;DHT22;11249;52.468;13.776;2023-07-13T09:47:39;23.90;99.90
22167;DHT22;11249;52.468;13.776;2023-07-13T09:50:09;23.90;99.90
22167;DHT22;11249;52.468;13.776;2023-07-13T09:52:43;24.00;99.90
22167;DHT22;11249;52.468;13.776;2023-07-13T09:55:37;24.10;99.90
22167;DHT22;11249;52.468;13.776;2023-07-13T09:58:11;24.20;99.90
22167;DHT22;11249;52.468;13.776;2023-07-13T10:00:39;24.10;99.90
22167;DHT22;11249;52.468;13.776;2023-07-13T10:03:29;24.10;99.90
22167;DHT22;11249;52.468;13.776;2023-07-13T10:06:20;24.20;99.90
22167;DHT22;11249;52.468;13.776;2023-07-13T10:08:50;24.10;99.90
22167;DHT22;11249;52.468;13.776;2023-07-13T10:11:24;24.10;99.90
22167;DHT22;11249;52.468;13.776;2023-07-13T10:14:16;24.20;99.90
22167;DHT22;11249;52.468;13.776;2023-07-13T10:16:45;24.20;99.90
22167;DHT22;11249;52.468;13.776;2023-07-13T10:19:25;24.20;99.90
22167;DHT22;11249;52.468;13.776;2023-07-13T10:21:59;24.20;99.90
22167;DHT22;11249;52.468;13.776;2023-07-13T10:24:32;24.30;99.90
22167;DHT22;11249;52.468;13.776;2023-07-13T10:27:19;24.50;99.90
22167;DHT22;11249;52.468;13.776;2023-07-13T10:32:35;24.90;99.90
22167;DHT22;11249;52.468;13.776;2023-07-13T10:35:03;24.70;99.90
22167;DHT22;11249;52.468;13.776;2023-07-13T10:37:39;24.70;99.90
22167;DHT22;11249;52.468;13.776;2023-07-13T10:40:13;24.60;99.90
22167;DHT22;11249;52.468;13.776;2023-07-13T10:42:46;24.50;99.90
22167;DHT22;11249;52.468;13.776;2023-07-13T10:45:23;24.70;99.90
22167;DHT22;11249;52.468;13.776;2023-07-13T10:47:54;25.10;99.90
22167;DHT22;11249;52.468;13.776;2023-07-13T10:50:25;25.30;99.90
22167;DHT22;11249;52.468;13.776;2023-07-13T10:52:54;25.60;99.90
22167;DHT22;11249;52.468;13.776;2023-07-13T10:55:40;25.80;99.90
22167;DHT22;11249;52.468;13.776;2023-07-13T10:58:22;26.10;99.90
22167;DHT22;11249;52.468;13.776;2023-07-13T11:01:07;26.00;99.90
22167;DHT22;11249;52.468;13.776;2023-07-13T11:03:38;25.80;99.90
22167;DHT22;11249;52.468;13.776;2023-07-13T11:06:17;25.80;99.90
22167;DHT22;11249;52.468;13.776;2023-07-13T11:14:03;25.90;99.90
22167;DHT22;11249;52.468;13.776;2023-07-13T11:16:45;26.00;99.90
22167;DHT22;11249;52.468;13.776;2023-07-13T11:27:41;26.30;99.90
22167;DHT22;11249;52.468;13.776;2023-07-13T11:35:41;27.40;99.90
22167;DHT22;11249;52.468;13.776;2023-07-13T11:38:17;27.60;99.90
22167;DHT22;11249;52.468;13.776;2023-07-13T11:40:46;27.80;99.90
22167;DHT22;11249;52.468;13.776;2023-07-13T11:43:21;27.70;99.90
22167;DHT22;11249;52.468;13.776;2023-07-13T11:45:51;27.60;99.90
22167;DHT22;11249;52.468;13.776;2023-07-13T11:48:24;27.60;99.90
22167;DHT22;11249;52.468;13.776;2023-07-13T11:50:55;28.00;99.90
22167;DHT22;11249;52.468;13.776;2023-07-13T11:53:23;27.80;99.90
22167;DHT22;11249;52.468;13.776;2023-07-13T11:55:52;27.90;99.90
22167;DHT22;11249;52.468;13.776;2023-07-13T11:58:24;28.10;99.90
22167;DHT22;11249;52.468;13.776;2023-07-13T12:00:51;28.00;99.90
22167;DHT22;11249;52.468;13.776;2023-07-13T12:03:22;28.20;99.90
22167;DHT22;11249;52.468;13.776;2023-07-13T12:05:58;28.20;99.90
22167;DHT22;11249;52.468;13.776;2023-07-13T12:08:25;28.00;99.90
22167;DHT22;11249;52.468;13.776;2023-07-13T12:11:01;27.70;99.90
22167;DHT22;11249;52.468;13.776;2023-07-13T12:13:37;27.70;99.90
22167;DHT22;11249;52.468;13.776;2023-07-13T12:16:30;27.30;99.90
22167;DHT22;11249;52.468;13.776;2023-07-13T12:19:01;27.40;99.90
22167;DHT22;11249;52.468;13.776;2023-07-13T12:21:36;27.90;99.90
22167;DHT22;11249;52.468;13.776;2023-07-13T12:24:04;28.20;99.90
22167;DHT22;11249;52.468;13.776;2023-07-13T12:26:32;28.60;99.90
22167;DHT22;11249;52.468;13.776;2023-07-13T12:29:01;29.10;99.90
22167;DHT22;11249;52.468;13.776;2023-07-13T12:31:41;29.40;99.90
22167;DHT22;11249;52.468;13.776;2023-07-13T12:34:17;29.60;99.90
22167;DHT22;11249;52.468;13.776;2023-07-13T12:36:59;29.40;99.90
22167;DHT22;11249;52.468;13.776;2023-07-13T12:39:35;29.60;99.90
22167;DHT22;11249;52.468;13.776;2023-07-13T12:42:18;29.50;99.70
22167;DHT22;11249;52.468;13.776;2023-07-13T12:44:47;29.50;99.00
22167;DHT22;11249;52.468;13.776;2023-07-13T12:47:14;29.40;98.80
22167;DHT22;11249;52.468;13.776;2023-07-13T12:49:48;29.40;99.60
22167;DHT22;11249;52.468;13.776;2023-07-13T12:52:19;29.70;99.70
22167;DHT22;11249;52.468;13.776;2023-07-13T12:55:16;29.60;99.00
22167;DHT22;11249;52.468;13.776;2023-07-13T12:57:51;29.70;99.80
22167;DHT22;11249;52.468;13.776;2023-07-13T13:00:21;29.50;98.70
22167;DHT22;11249;52.468;13.776;2023-07-13T13:02:50;29.60;98.10
22167;DHT22;11249;52.468;13.776;2023-07-13T13:05:18;29.80;98.80
22167;DHT22;11249;52.468;13.776;2023-07-13T13:07:46;30.70;99.00
22167;DHT22;11249;52.468;13.776;2023-07-13T13:10:14;30.70;97.20
22167;DHT22;11249;52.468;13.776;2023-07-13T13:12:41;29.50;97.00
22167;DHT22;11249;52.468;13.776;2023-07-13T13:15:11;29.10;97.40
22167;DHT22;11249;52.468;13.776;2023-07-13T13:17:38;28.80;98.70
22167;DHT22;11249;52.468;13.776;2023-07-13T13:20:25;28.80;98.20
22167;DHT22;11249;52.468;13.776;2023-07-13T13:22:52;29.10;98.40
22167;DHT22;11249;52.468;13.776;2023-07-13T13:25:19;29.20;98.30
22167;DHT22;11249;52.468;13.776;2023-07-13T13:27:46;29.30;96.60
22167;DHT22;11249;52.468;13.776;2023-07-13T13:30:17;29.40;97.50
22167;DHT22;11249;52.468;13.776;2023-07-13T13:32:46;28.90;97.30
22167;DHT22;11249;52.468;13.776;2023-07-13T13:35:18;28.80;97.70
22167;DHT22;11249;52.468;13.776;2023-07-13T13:37:47;28.30;98.20
22167;DHT22;11249;52.468;13.776;2023-07-13T13:40:21;28.10;98.20
22167;DHT22;11249;52.468;13.776;2023-07-13T13:42:53;28.40;98.50
22167;DHT22;11249;52.468;13.776;2023-07-13T13:45:21;28.50;98.40
22167;DHT22;11249;52.468;13.776;2023-07-13T13:47:48;28.00;98.30
22167;DHT22;11249;52.468;13.776;2023-07-13T13:50:18;28.10;98.10
22167;DHT22;11249;52.468;13.776;2023-07-13T13:52:46;28.30;99.20
22167;DHT22;11249;52.468;13.776;2023-07-13T13:55:14;28.50;98.80
22167;DHT22;11249;52.468;13.776;2023-07-13T13:57:42;28.80;98.60
22167;DHT22;11249;52.468;13.776;2023-07-13T14:00:12;28.90;98.60
22167;DHT22;11249;52.468;13.776;2023-07-13T14:02:45;29.30;97.80
22167;DHT22;11249;52.468;13.776;2023-07-13T14:05:15;29.60;98.10
22167;DHT22;11249;52.468;13.776;2023-07-13T14:07:46;30.00;97.50
22167;DHT22;11249;52.468;13.776;2023-07-13T14:10:15;29.90;96.60
22167;DHT22;11249;52.468;13.776;2023-07-13T14:12:44;29.60;96.40
22167;DHT22;11249;52.468;13.776;2023-07-13T14:15:22;29.80;97.10
22167;DHT22;11249;52.468;13.776;2023-07-13T14:17:49;29.70;96.60
22167;DHT22;11249;52.468;13.776;2023-07-13T14:20:21;29.50;96.00
22167;DHT22;11249;52.468;13.776;2023-07-13T14:22:48;29.60;95.80
22167;DHT22;11249;52.468;13.776;2023-07-13T14:25:20;29.50;96.60
22167;DHT22;11249;52.468;13.776;2023-07-13T14:27:53;28.90;96.50
22167;DHT22;11249;52.468;13.776;2023-07-13T14:30:22;29.10;96.10
22167;DHT22;11249;52.468;13.776;2023-07-13T14:32:49;29.30;96.00
22167;DHT22;11249;52.468;13.776;2023-07-13T14:35:18;28.90;95.80
22167;DHT22;11249;52.468;13.776;2023-07-13T14:37:46;28.40;96.60
22167;DHT22;11249;52.468;13.776;2023-07-13T14:40:24;28.10;96.60
22167;DHT22;11249;52.468;13.776;2023-07-13T14:42:52;28.10;97.20
22167;DHT22;11249;52.468;13.776;2023-07-13T14:45:20;28.20;96.90
22167;DHT22;11249;52.468;13.776;2023-07-13T14:47:47;28.70;95.90
22167;DHT22;11249;52.468;13.776;2023-07-13T14:50:15;28.50;96.40
22167;DHT22;11249;52.468;13.776;2023-07-13T14:52:42;28.30;96.60
22167;DHT22;11249;52.468;13.776;2023-07-13T14:55:12;27.60;97.10
22167;DHT22;11249;52.468;13.776;2023-07-13T14:57:39;27.60;97.70
22167;DHT22;11249;52.468;13.776;2023-07-13T15:00:17;28.00;96.80
22167;DHT22;11249;52.468;13.776;2023-07-13T15:02:47;28.00;96.40
22167;DHT22;11249;52.468;13.776;2023-07-13T15:05:24;28.10;96.40
22167;DHT22;11249;52.468;13.776;2023-07-13T15:07:52;28.30;97.10
22167;DHT22;11249;52.468;13.776;2023-07-13T15:10:25;28.50;96.60
22167;DHT22;11249;52.468;13.776;2023-07-13T15:12:52;28.70;96.80
22167;DHT22;11249;52.468;13.776;2023-07-13T15:15:19;28.80;95.70
22167;DHT22;11249;52.468;13.776;2023-07-13T15:17:47;28.80;95.60
22167;DHT22;11249;52.468;13.776;2023-07-13T15:22:54;28.70;95.40
22167;DHT22;11249;52.468;13.776;2023-07-13T15:25:24;28.80;95.40
22167;DHT22;11249;52.468;13.776;2023-07-13T15:27:52;29.20;95.80
22167;DHT22;11249;52.468;13.776;2023-07-13T15:30:19;29.60;95.90
22167;DHT22;11249;52.468;13.776;2023-07-13T15:32:47;30.10;94.90
22167;DHT22;11249;52.468;13.776;2023-07-13T15:35:20;30.30;94.80
22167;DHT22;11249;52.468;13.776;2023-07-13T15:37:48;30.30;94.20
22167;DHT22;11249;52.468;13.776;2023-07-13T15:40:17;29.90;94.40
22167;DHT22;11249;52.468;13.776;2023-07-13T15:42:44;29.90;94.40
22167;DHT22;11249;52.468;13.776;2023-07-13T15:45:23;29.40;93.30
22167;DHT22;11249;52.468;13.776;2023-07-13T15:47:51;29.40;94.10
22167;DHT22;11249;52.468;13.776;2023-07-13T15:50:20;29.30;93.30
22167;DHT22;11249;52.468;13.776;2023-07-13T15:52:49;28.80;94.30
22167;DHT22;11249;52.468;13.776;2023-07-13T15:55:16;29.00;94.10
22167;DHT22;11249;52.468;13.776;2023-07-13T15:57:48;29.20;93.10
22167;DHT22;11249;52.468;13.776;2023-07-13T16:00:20;28.70;93.20